createdAt,value
2019-03-20T00:00:18.640Z,73.50
2019-03-20T00:02:47.019Z,74.00
2019-03-20T00:05:15.277Z,74.90
2019-03-20T00:07:43.634Z,74.60
2019-03-20T00:10:11.954Z,74.40
2019-03-20T00:12:40.273Z,75.50
2019-03-20T00:15:11.359Z,75.90
2019-03-20T00:17:39.620Z,75.70
2019-03-20T00:20:10.051Z,73.70
2019-03-20T00:22:38.384Z,73.50
2019-03-20T00:25:08.409Z,73.70
2019-03-20T00:27:36.678Z,73.30
2019-03-20T00:30:11.195Z,73.60
2019-03-20T00:32:39.466Z,73.90
2019-03-20T00:35:07.756Z,75.10
2019-03-20T00:37:36.016Z,75.10
2019-03-20T00:40:07.347Z,75.40
2019-03-20T00:42:52.945Z,76.20
2019-03-20T00:45:21.802Z,77.30
2019-03-20T00:47:50.079Z,78.40
2019-03-20T00:50:19.310Z,78.70
2019-03-20T00:52:47.913Z,77.20
2019-03-20T00:55:16.829Z,76.80
2019-03-20T00:57:45.372Z,77.60
2019-03-20T01:00:25.024Z,77.50
2019-03-20T01:02:53.457Z,77.60
2019-03-20T01:05:21.833Z,76.10
2019-03-20T01:07:50.081Z,75.70
2019-03-20T01:10:22.244Z,74.50
2019-03-20T01:12:50.645Z,72.90
2019-03-20T01:15:19.017Z,75.50
2019-03-20T01:17:47.266Z,77.10
2019-03-20T01:20:18.143Z,76.00
2019-03-20T01:22:46.478Z,76.80
2019-03-20T01:25:15.528Z,75.60
2019-03-20T01:27:43.823Z,75.10
2019-03-20T01:30:32.664Z,75.10
2019-03-20T01:33:02.172Z,76.10
2019-03-20T01:35:30.489Z,76.60
2019-03-20T01:37:58.782Z,78.40
2019-03-20T01:40:27.123Z,79.10
2019-03-20T01:42:55.569Z,79.10
2019-03-20T01:45:24.140Z,79.40
2019-03-20T01:47:52.483Z,81.20
2019-03-20T01:50:20.754Z,77.80
2019-03-20T01:52:49.029Z,76.70
2019-03-20T01:55:17.296Z,77.80
2019-03-20T01:57:45.599Z,78.50
2019-03-20T02:00:13.936Z,77.20
2019-03-20T02:02:42.202Z,76.20
2019-03-20T02:05:10.681Z,76.40
2019-03-20T02:07:38.972Z,76.20
2019-03-20T02:10:14.765Z,75.80
2019-03-20T02:12:43.044Z,76.90
2019-03-20T02:15:13.162Z,77.10
2019-03-20T02:17:41.562Z,76.90
2019-03-20T02:20:12.433Z,77.00
2019-03-20T02:22:40.838Z,76.80
2019-03-20T02:25:10.431Z,76.20
2019-03-20T02:27:38.738Z,76.00
2019-03-20T02:30:13.471Z,76.30
2019-03-20T02:32:42.081Z,76.80
2019-03-20T02:35:10.502Z,75.90
2019-03-20T02:37:38.851Z,75.10
2019-03-20T02:40:09.885Z,75.20
2019-03-20T02:42:38.226Z,74.70
2019-03-20T02:45:10.191Z,74.80
2019-03-20T02:47:38.525Z,74.70
2019-03-20T02:50:08.968Z,75.60
2019-03-20T02:52:37.232Z,75.00
2019-03-20T02:55:08.139Z,74.90
2019-03-20T02:57:36.552Z,74.20
2019-03-20T03:00:18.967Z,73.10
2019-03-20T03:02:47.229Z,72.90
2019-03-20T03:05:15.674Z,71.20
2019-03-20T03:07:43.943Z,71.90
2019-03-20T03:10:15.698Z,72.50
2019-03-20T03:12:44.327Z,75.80
2019-03-20T03:15:13.506Z,78.50
2019-03-20T03:17:41.848Z,79.10
2019-03-20T03:20:11.989Z,80.80
2019-03-20T03:22:40.235Z,82.20
2019-03-20T03:25:09.473Z,82.60
2019-03-20T03:27:37.735Z,81.90
2019-03-20T03:30:11.831Z,83.20
2019-03-20T03:32:40.154Z,84.80
2019-03-20T03:35:08.696Z,85.40
2019-03-20T03:37:37.047Z,85.70
2019-03-20T03:40:13.636Z,85.40
2019-03-20T03:42:42.187Z,85.70
2019-03-20T03:45:12.680Z,86.60
2019-03-20T03:47:41.122Z,85.90
2019-03-20T03:50:10.027Z,85.80
2019-03-20T03:52:38.355Z,85.20
2019-03-20T03:55:08.384Z,83.60
2019-03-20T03:57:36.730Z,84.50
2019-03-20T04:00:08.295Z,84.80
2019-03-20T04:02:36.649Z,82.30
2019-03-20T04:05:05.387Z,82.30
2019-03-20T04:07:33.852Z,81.20
2019-03-20T04:10:02.268Z,79.40
2019-03-20T04:12:30.590Z,78.30
2019-03-20T04:14:58.899Z,78.70
2019-03-20T04:17:27.450Z,79.20
2019-03-20T04:19:55.701Z,80.50
2019-03-20T04:22:23.994Z,79.50
2019-03-20T04:24:52.517Z,79.70
2019-03-20T04:27:20.786Z,80.00
2019-03-20T04:29:49.051Z,80.00
2019-03-20T04:32:17.341Z,80.70
2019-03-20T04:34:45.822Z,81.20
2019-03-20T04:37:14.111Z,80.80
2019-03-20T04:39:42.539Z,79.20
2019-03-20T04:42:10.840Z,80.00
2019-03-20T04:44:39.126Z,79.00
2019-03-20T04:47:07.379Z,78.20
2019-03-20T04:49:35.661Z,77.90
2019-03-20T04:52:03.928Z,77.10
2019-03-20T04:54:32.275Z,78.40
2019-03-20T04:57:00.709Z,79.40
2019-03-20T04:59:29.000Z,80.30
2019-03-20T05:01:57.346Z,78.80
2019-03-20T05:04:25.698Z,79.40
2019-03-20T05:06:58.859Z,79.60
2019-03-20T05:09:24.139Z,79.50
2019-03-20T05:11:52.454Z,79.90
2019-03-20T05:14:20.741Z,79.70
2019-03-20T05:16:49.145Z,80.90
2019-03-20T05:19:17.457Z,80.10
2019-03-20T05:21:45.750Z,81.40
2019-03-20T05:24:14.032Z,80.50
2019-03-20T05:26:42.351Z,79.30
2019-03-20T05:29:10.609Z,79.80
2019-03-20T05:31:38.887Z,82.90
2019-03-20T05:34:07.141Z,88.90
2019-03-20T05:36:35.836Z,87.00
2019-03-20T05:39:06.309Z,88.20
2019-03-20T05:41:34.615Z,83.70
2019-03-20T05:44:02.981Z,80.90
2019-03-20T05:46:31.276Z,79.50
2019-03-20T05:48:59.612Z,78.40
2019-03-20T05:51:28.049Z,78.80
2019-03-20T05:53:56.435Z,80.00
2019-03-20T05:56:24.789Z,79.80
2019-03-20T05:58:53.173Z,78.90
2019-03-20T06:01:21.508Z,78.40
2019-03-20T06:03:49.770Z,78.20
2019-03-20T06:06:18.067Z,77.90
2019-03-20T06:08:46.307Z,77.80
2019-03-20T06:11:14.684Z,78.00
2019-03-20T06:13:43.007Z,79.50
2019-03-20T06:16:11.307Z,80.00
2019-03-20T06:18:39.923Z,79.00
2019-03-20T06:21:08.238Z,79.20
2019-03-20T06:23:36.538Z,81.40
2019-03-20T06:26:04.885Z,82.20
2019-03-20T06:28:33.186Z,82.90
2019-03-20T06:31:01.472Z,83.10
2019-03-20T06:33:29.745Z,84.50
2019-03-20T06:35:58.017Z,85.20
2019-03-20T06:38:26.296Z,84.30
2019-03-20T06:40:54.628Z,84.00
2019-03-20T06:43:22.971Z,83.60
2019-03-20T06:45:51.223Z,83.30
2019-03-20T06:48:19.848Z,83.20
2019-03-20T06:50:48.130Z,83.40
2019-03-20T06:53:16.449Z,83.80
2019-03-20T06:55:44.810Z,84.10
2019-03-20T06:58:13.102Z,84.10
2019-03-20T07:00:56.389Z,83.40
2019-03-20T07:03:37.487Z,82.00
2019-03-20T07:06:14.674Z,81.20
2019-03-20T07:08:52.063Z,80.60
2019-03-20T07:11:19.436Z,80.20
2019-03-20T07:13:47.697Z,79.90
2019-03-20T07:16:15.970Z,78.40
2019-03-20T07:18:44.252Z,76.80
2019-03-20T07:21:12.592Z,76.60
2019-03-20T07:23:40.886Z,76.30
2019-03-20T07:26:09.151Z,75.90
2019-03-20T07:28:37.438Z,75.20
2019-03-20T07:31:14.671Z,75.00
2019-03-20T07:33:35.774Z,74.30
2019-03-20T07:36:04.042Z,74.20
2019-03-20T07:38:32.589Z,73.90
2019-03-20T07:41:00.887Z,73.50
2019-03-20T07:43:29.251Z,72.80
2019-03-20T07:45:57.640Z,72.00
2019-03-20T07:48:25.910Z,72.10
2019-03-20T07:50:54.256Z,71.70
2019-03-20T07:53:22.512Z,71.70
2019-03-20T07:55:50.837Z,70.70
2019-03-20T07:58:19.104Z,69.20
2019-03-20T08:00:47.392Z,69.20
2019-03-20T08:03:15.721Z,69.10
2019-03-20T08:05:44.279Z,69.10
2019-03-20T08:08:12.533Z,69.10
2019-03-20T08:10:40.835Z,69.10
2019-03-20T08:13:09.199Z,68.10
2019-03-20T08:15:37.564Z,66.80
2019-03-20T08:18:05.833Z,64.60
2019-03-20T08:20:34.120Z,65.30
2019-03-20T08:23:02.490Z,64.70
2019-03-20T08:25:30.791Z,63.50
2019-03-20T08:27:59.076Z,64.00
2019-03-20T08:30:27.379Z,62.00
2019-03-20T08:32:55.715Z,61.40
2019-03-20T08:35:29.773Z,60.80
2019-03-20T08:37:58.244Z,61.20
2019-03-20T08:40:26.638Z,60.20
2019-03-20T08:42:54.971Z,59.60
2019-03-20T08:45:23.291Z,59.00
2019-03-20T08:47:51.654Z,59.10
2019-03-20T08:50:24.879Z,58.60
2019-03-20T08:52:53.152Z,57.40
2019-03-20T08:55:22.068Z,58.10
2019-03-20T08:57:50.346Z,56.60
2019-03-20T09:00:25.103Z,56.50
2019-03-20T09:02:53.423Z,55.50
2019-03-20T09:05:21.823Z,55.10
2019-03-20T09:07:50.171Z,54.40
2019-03-20T09:10:27.713Z,54.80
2019-03-20T09:12:56.006Z,54.50
2019-03-20T09:15:24.435Z,53.70
2019-03-20T09:17:52.790Z,52.60
2019-03-20T09:20:23.360Z,52.30
2019-03-20T09:22:51.636Z,52.20
2019-03-20T09:25:25.287Z,51.50
2019-03-20T09:27:53.757Z,51.30
2019-03-20T09:30:24.120Z,51.60
2019-03-20T09:32:52.402Z,51.10
2019-03-20T09:35:20.677Z,50.40
2019-03-20T09:37:52.275Z,50.90
2019-03-20T09:40:23.834Z,49.80
2019-03-20T09:42:52.405Z,49.60
2019-03-20T09:45:21.542Z,49.20
2019-03-20T09:47:49.794Z,48.40
2019-03-20T09:50:22.798Z,49.00
2019-03-20T09:52:51.059Z,49.50
2019-03-20T09:55:19.362Z,48.50
2019-03-20T09:57:47.647Z,47.90
2019-03-20T10:00:22.285Z,47.80
2019-03-20T10:02:50.546Z,47.00
2019-03-20T10:05:18.933Z,45.80
2019-03-20T10:07:47.328Z,44.90
2019-03-20T10:10:27.916Z,45.20
2019-03-20T10:12:56.243Z,44.30
2019-03-20T10:15:27.795Z,45.10
2019-03-20T10:17:56.067Z,45.00
2019-03-20T10:20:24.379Z,44.60
2019-03-20T10:22:52.907Z,45.30
2019-03-20T10:25:21.245Z,43.80
2019-03-20T10:27:51.819Z,42.70
2019-03-20T10:30:23.543Z,42.10
2019-03-20T10:32:51.932Z,42.80
2019-03-20T10:35:20.306Z,42.20
2019-03-20T10:37:48.598Z,41.80
2019-03-20T10:40:21.470Z,41.30
2019-03-20T10:42:50.765Z,41.80
2019-03-20T10:45:19.675Z,41.40
2019-03-20T10:47:48.034Z,41.10
2019-03-20T10:50:21.582Z,42.50
2019-03-20T10:52:50.034Z,41.40
2019-03-20T10:55:18.295Z,40.40
2019-03-20T10:57:46.626Z,40.50
2019-03-20T11:00:19.622Z,40.20
2019-03-20T11:02:47.996Z,40.20
2019-03-20T11:05:16.973Z,40.20
2019-03-20T11:07:45.366Z,39.80
2019-03-20T11:10:23.278Z,40.10
2019-03-20T11:12:51.654Z,39.60
2019-03-20T11:15:21.013Z,39.00
2019-03-20T11:17:49.341Z,38.30
2019-03-20T11:20:18.588Z,37.60
2019-03-20T11:22:47.086Z,37.30
2019-03-20T11:25:27.372Z,37.50
2019-03-20T11:27:55.660Z,38.10
2019-03-20T11:30:30.999Z,37.90
2019-03-20T11:32:59.388Z,39.00
2019-03-20T11:35:27.652Z,39.60
2019-03-20T11:37:55.924Z,38.60
2019-03-20T11:40:35.009Z,38.40
2019-03-20T11:43:03.446Z,38.50
2019-03-20T11:45:31.697Z,39.00
2019-03-20T11:48:00.093Z,38.60
2019-03-20T11:50:36.399Z,38.50
2019-03-20T11:53:05.939Z,38.30
2019-03-20T11:55:34.202Z,38.80
2019-03-20T11:58:02.618Z,38.20
2019-03-20T12:00:31.207Z,36.80
2019-03-20T12:02:59.483Z,35.30
2019-03-20T12:05:27.865Z,35.20
2019-03-20T12:07:56.153Z,35.70
2019-03-20T12:10:28.616Z,35.50
2019-03-20T12:12:56.982Z,35.30
2019-03-20T12:15:25.375Z,34.50
2019-03-20T12:17:53.699Z,34.90
2019-03-20T12:20:23.064Z,34.00
2019-03-20T12:22:51.784Z,33.90
2019-03-20T12:25:28.570Z,34.50
2019-03-20T12:27:57.382Z,34.80
2019-03-20T12:30:31.576Z,35.60
2019-03-20T12:32:59.839Z,35.00
2019-03-20T12:35:30.866Z,32.90
2019-03-20T12:37:59.172Z,33.40
2019-03-20T12:40:29.608Z,32.30
2019-03-20T12:42:58.037Z,33.50
2019-03-20T12:45:31.474Z,31.70
2019-03-20T12:47:59.852Z,31.80
2019-03-20T12:50:28.189Z,32.10
2019-03-20T12:52:56.536Z,31.40
2019-03-20T12:55:24.842Z,32.30
2019-03-20T12:57:53.143Z,31.80
2019-03-20T13:00:27.275Z,31.50
2019-03-20T13:02:55.305Z,31.70
2019-03-20T13:05:23.625Z,32.20
2019-03-20T13:07:51.918Z,31.20
2019-03-20T13:10:21.705Z,30.90
2019-03-20T13:12:50.053Z,31.10
2019-03-20T13:15:27.932Z,30.00
2019-03-20T13:17:56.837Z,29.90
2019-03-20T13:20:25.365Z,28.70
2019-03-20T13:23:02.649Z,29.30
2019-03-20T13:25:30.911Z,29.10
2019-03-20T13:27:59.275Z,28.00
2019-03-20T13:30:42.556Z,28.40
2019-03-20T13:33:10.986Z,29.50
2019-03-20T13:35:39.325Z,30.00
2019-03-20T13:38:08.080Z,30.90
2019-03-20T13:40:36.367Z,30.30
2019-03-20T13:43:05.024Z,28.80
2019-03-20T13:45:33.292Z,30.60
2019-03-20T13:48:01.573Z,29.60
2019-03-20T13:50:29.920Z,29.80
2019-03-20T13:52:58.303Z,30.50
2019-03-20T13:55:26.567Z,30.00
2019-03-20T13:57:54.861Z,30.40
2019-03-20T14:00:26.683Z,29.60
2019-03-20T14:02:55.066Z,29.30
2019-03-20T14:05:23.384Z,30.00
2019-03-20T14:07:51.670Z,31.00
2019-03-20T14:10:25.299Z,31.90
2019-03-20T14:12:54.073Z,30.70
2019-03-20T14:15:22.388Z,30.80
2019-03-20T14:17:50.683Z,30.40
2019-03-20T14:20:24.887Z,29.90
2019-03-20T14:22:53.543Z,29.90
2019-03-20T14:25:22.135Z,29.90
2019-03-20T14:27:51.361Z,29.30
2019-03-20T14:30:30.912Z,29.20
2019-03-20T14:32:59.190Z,28.60
2019-03-20T14:35:27.467Z,29.10
2019-03-20T14:37:55.861Z,29.00
2019-03-20T14:40:36.573Z,28.70
2019-03-20T14:43:05.337Z,29.10
2019-03-20T14:45:33.732Z,28.70
2019-03-20T14:48:02.087Z,28.60
2019-03-20T14:50:31.539Z,28.70
2019-03-20T14:52:59.824Z,29.60
2019-03-20T14:55:28.189Z,30.30
2019-03-20T14:57:56.541Z,29.00
2019-03-20T15:00:31.406Z,28.80
2019-03-20T15:02:59.891Z,29.30
2019-03-20T15:05:28.199Z,30.00
2019-03-20T15:07:56.453Z,31.40
2019-03-20T15:10:25.795Z,31.70
2019-03-20T15:12:54.627Z,30.10
2019-03-20T15:15:34.967Z,30.30
2019-03-20T15:18:03.264Z,29.50
2019-03-20T15:20:31.561Z,28.60
2019-03-20T15:22:59.831Z,28.00
2019-03-20T15:25:28.127Z,28.00
2019-03-20T15:27:56.413Z,28.30
2019-03-20T15:30:25.538Z,29.20
2019-03-20T15:32:53.935Z,29.40
2019-03-20T15:35:22.265Z,28.20
2019-03-20T15:37:50.536Z,28.90
2019-03-20T15:40:24.182Z,29.00
2019-03-20T15:42:52.472Z,28.70
2019-03-20T15:45:20.760Z,28.60
2019-03-20T15:47:49.118Z,28.60
2019-03-20T15:50:18.515Z,29.30
2019-03-20T15:52:46.802Z,29.70
2019-03-20T15:55:18.182Z,29.30
2019-03-20T15:57:46.639Z,29.50
2019-03-20T16:00:17.153Z,29.40
2019-03-20T16:02:45.901Z,29.10
2019-03-20T16:05:14.178Z,29.40
2019-03-20T16:07:42.547Z,28.80
2019-03-20T16:10:18.917Z,28.60
2019-03-20T16:12:47.186Z,28.70
2019-03-20T16:15:18.081Z,29.30
2019-03-20T16:17:46.457Z,29.40
2019-03-20T16:20:15.369Z,29.50
2019-03-20T16:22:43.705Z,29.60
2019-03-20T16:25:15.296Z,29.90
2019-03-20T16:27:43.980Z,30.10
2019-03-20T16:30:15.170Z,30.00
2019-03-20T16:32:43.550Z,30.10
2019-03-20T16:35:11.938Z,30.10
2019-03-20T16:37:40.282Z,30.20
2019-03-20T16:40:14.438Z,30.50
2019-03-20T16:42:44.337Z,31.00
2019-03-20T16:45:15.605Z,31.70
2019-03-20T16:47:43.933Z,32.30
2019-03-20T16:50:14.888Z,32.20
2019-03-20T16:52:43.943Z,32.40
2019-03-20T16:55:16.267Z,33.20
2019-03-20T16:57:44.604Z,32.60
2019-03-20T17:00:27.514Z,33.20
2019-03-20T17:02:55.839Z,33.20
2019-03-20T17:05:24.580Z,32.50
2019-03-20T17:07:52.857Z,32.60
2019-03-20T17:10:23.309Z,33.40
2019-03-20T17:12:51.654Z,33.00
2019-03-20T17:15:22.599Z,33.30
2019-03-20T17:17:51.058Z,33.90
2019-03-20T17:20:19.390Z,34.50
2019-03-20T17:22:47.698Z,34.80
2019-03-20T17:25:16.041Z,34.60
2019-03-20T17:27:44.306Z,35.60
2019-03-20T17:30:15.594Z,35.30
2019-03-20T17:32:44.330Z,35.40
2019-03-20T17:35:13.707Z,35.70
2019-03-20T17:37:42.088Z,36.20
2019-03-20T17:40:22.153Z,36.60
2019-03-20T17:42:50.577Z,36.60
2019-03-20T17:45:27.294Z,36.50
2019-03-20T17:47:55.575Z,36.70
2019-03-20T17:50:28.246Z,36.70
2019-03-20T17:52:56.631Z,37.20
2019-03-20T17:55:25.123Z,37.10
2019-03-20T17:57:53.394Z,37.00
2019-03-20T18:00:33.098Z,37.20
2019-03-20T18:03:01.470Z,37.20
2019-03-20T18:05:29.799Z,37.10
2019-03-20T18:07:58.191Z,37.30
2019-03-20T18:10:26.475Z,37.30
2019-03-20T18:12:54.855Z,37.60
2019-03-20T18:15:23.275Z,37.40
2019-03-20T18:17:51.730Z,37.50
2019-03-20T18:20:20.593Z,37.70
2019-03-20T18:22:48.983Z,37.70
2019-03-20T18:25:17.347Z,38.00
2019-03-20T18:27:45.747Z,38.30
2019-03-20T18:30:23.368Z,38.60
2019-03-20T18:32:51.905Z,38.90
2019-03-20T18:35:20.261Z,38.70
2019-03-20T18:37:48.605Z,38.70
2019-03-20T18:40:27.658Z,38.70
2019-03-20T18:43:01.623Z,38.80
2019-03-20T18:45:29.240Z,39.00
2019-03-20T18:47:57.665Z,39.20
2019-03-20T18:50:26.221Z,39.70
2019-03-20T18:52:54.923Z,40.10
2019-03-20T18:55:23.497Z,40.50
2019-03-20T18:57:52.389Z,41.00
2019-03-20T19:00:23.265Z,41.80
2019-03-20T19:02:53.809Z,42.40
2019-03-20T19:05:25.731Z,43.00
2019-03-20T19:07:54.075Z,43.00
2019-03-20T19:10:24.081Z,42.80
2019-03-20T19:12:52.987Z,42.80
2019-03-20T19:15:21.692Z,43.20
2019-03-20T19:17:50.116Z,43.40
2019-03-20T19:20:20.001Z,43.60
2019-03-20T19:22:48.786Z,44.00
2019-03-20T19:25:18.064Z,44.40
2019-03-20T19:27:46.527Z,44.10
2019-03-20T19:30:18.006Z,44.50
2019-03-20T19:32:46.367Z,43.90
2019-03-20T19:35:14.664Z,43.70
2019-03-20T19:37:42.968Z,43.80
2019-03-20T19:40:20.499Z,43.30
2019-03-20T19:42:48.914Z,43.80
2019-03-20T19:45:20.306Z,44.30
2019-03-20T19:47:48.847Z,45.10
2019-03-20T19:50:19.263Z,45.80
2019-03-20T19:52:47.550Z,46.10
2019-03-20T19:55:16.831Z,47.20
2019-03-20T19:57:45.176Z,46.90
2019-03-20T20:00:18.158Z,46.80
2019-03-20T20:02:46.530Z,46.90
2019-03-20T20:05:16.003Z,45.60
2019-03-20T20:07:44.683Z,46.10
2019-03-20T20:10:16.730Z,46.40
2019-03-20T20:12:45.278Z,47.50
2019-03-20T20:15:16.794Z,49.20
2019-03-20T20:17:46.933Z,49.70
2019-03-20T20:20:20.349Z,50.20
2019-03-20T20:22:48.704Z,50.40
2019-03-20T20:25:17.057Z,51.80
2019-03-20T20:27:45.521Z,53.10
2019-03-20T20:30:18.086Z,53.40
2019-03-20T20:32:46.464Z,54.00
2019-03-20T20:35:15.685Z,53.90
2019-03-20T20:37:46.237Z,53.70
2019-03-20T20:40:29.292Z,53.80
2019-03-20T20:42:57.667Z,53.70
2019-03-20T20:45:25.933Z,53.50
2019-03-20T20:47:54.322Z,53.60
2019-03-20T20:50:22.659Z,53.90
2019-03-20T20:52:51.041Z,52.60
2019-03-20T20:55:21.797Z,52.80
2019-03-20T20:57:50.243Z,53.00
2019-03-20T21:00:20.176Z,53.20
2019-03-20T21:02:48.559Z,54.20
2019-03-20T21:05:16.923Z,55.00
2019-03-20T21:07:45.218Z,54.30
2019-03-20T21:10:15.147Z,54.20
2019-03-20T21:12:55.623Z,54.30
2019-03-20T21:15:32.246Z,54.10
2019-03-20T21:18:16.216Z,54.30
2019-03-20T21:20:45.032Z,55.60
2019-03-20T21:23:33.228Z,54.50
2019-03-20T21:26:02.850Z,54.60
2019-03-20T21:28:52.706Z,55.30
2019-03-20T21:31:24.391Z,54.10
2019-03-20T21:33:56.080Z,53.40
2019-03-20T21:36:42.729Z,54.00
2019-03-20T21:39:11.236Z,54.20
2019-03-20T21:42:17.572Z,54.10
2019-03-20T21:45:18.223Z,54.50
2019-03-20T21:47:46.687Z,54.30
2019-03-20T21:50:50.464Z,54.00
2019-03-20T21:53:30.771Z,54.30
2019-03-20T21:56:31.067Z,54.20
2019-03-20T21:59:11.644Z,54.40
2019-03-20T22:02:10.465Z,54.70
2019-03-20T22:04:38.953Z,54.90
2019-03-20T22:07:09.244Z,55.00
2019-03-20T22:09:52.831Z,55.30
2019-03-20T22:12:27.287Z,55.00
2019-03-20T22:15:16.989Z,55.40
2019-03-20T22:18:09.837Z,55.40
2019-03-20T22:20:43.934Z,55.40
2019-03-20T22:23:30.233Z,55.80
2019-03-20T22:26:18.537Z,56.10
2019-03-20T22:29:04.901Z,56.40
2019-03-20T22:31:45.118Z,57.20
2019-03-20T22:34:31.966Z,57.50
2019-03-20T22:37:00.618Z,57.10
2019-03-20T22:39:51.574Z,57.50
2019-03-20T22:42:25.963Z,57.80
2019-03-20T22:45:00.321Z,58.30
2019-03-20T22:47:51.322Z,58.60
2019-03-20T22:50:22.850Z,60.00
2019-03-20T22:53:09.280Z,59.90
2019-03-20T22:55:43.304Z,59.30
2019-03-20T22:58:20.398Z,58.90
2019-03-20T23:00:52.042Z,58.80
2019-03-20T23:03:32.938Z,58.70
2019-03-20T23:06:01.460Z,59.00
2019-03-20T23:08:29.933Z,58.80
2019-03-20T23:10:58.464Z,59.10
2019-03-20T23:13:27.073Z,59.50
2019-03-20T23:15:55.588Z,60.20
2019-03-20T23:18:24.379Z,59.60
2019-03-20T23:20:54.544Z,59.70
2019-03-20T23:23:23.166Z,59.50
2019-03-20T23:25:51.658Z,59.70
2019-03-20T23:28:20.623Z,59.90
2019-03-20T23:30:49.061Z,59.80
2019-03-20T23:33:17.527Z,59.80
2019-03-20T23:35:46.072Z,59.80
2019-03-20T23:38:14.543Z,59.80
2019-03-20T23:40:42.983Z,60.10
2019-03-20T23:43:12.898Z,60.40
2019-03-20T23:45:41.410Z,60.40
2019-03-20T23:48:18.910Z,60.50
2019-03-20T23:50:49.494Z,60.60
2019-03-20T23:53:18.391Z,60.60
2019-03-20T23:55:46.940Z,60.80
2019-03-20T23:58:15.451Z,60.90
